createdAt,value
2022-09-05T00:00:16.415Z,99.99
2022-09-05T00:01:16.379Z,99.99
2022-09-05T00:02:17.364Z,99.99
2022-09-05T00:03:16.486Z,99.99
2022-09-05T00:04:25.119Z,99.99
2022-09-05T00:05:17.366Z,99.99
2022-09-05T00:06:16.288Z,99.99
2022-09-05T00:07:41.280Z,99.99
2022-09-05T00:08:17.299Z,99.99
2022-09-05T00:09:16.282Z,99.99
2022-09-05T00:10:16.278Z,99.99
2022-09-05T00:11:42.826Z,99.99
2022-09-05T00:12:17.238Z,99.99
2022-09-05T00:13:16.244Z,99.99
2022-09-05T00:14:16.252Z,99.99
2022-09-05T00:15:18.908Z,99.99
2022-09-05T00:16:16.216Z,99.99
2022-09-05T00:17:16.165Z,99.99
2022-09-05T00:22:18.555Z,99.99
2022-09-05T00:23:12.111Z,99.99
2022-09-05T00:24:24.864Z,99.99
2022-09-05T00:24:25.693Z,99.99
2022-09-05T00:24:29.062Z,99.99
2022-09-05T00:24:30.905Z,99.99
2022-09-05T00:24:36.684Z,99.99
2022-09-05T00:25:32.950Z,99.99
2022-09-05T00:26:17.111Z,99.99
2022-09-05T00:27:16.059Z,99.99
2022-09-05T00:28:26.635Z,99.99
2022-09-05T00:29:20.429Z,99.99
2022-09-05T00:31:08.222Z,99.99
2022-09-05T00:31:54.489Z,99.99
2022-09-05T00:32:17.107Z,99.99
2022-09-05T00:33:17.193Z,99.99
2022-09-05T00:34:15.970Z,99.99
2022-09-05T00:35:15.978Z,99.99
2022-09-05T00:36:15.977Z,99.99
2022-09-05T00:37:17.028Z,99.99
2022-09-05T00:38:15.970Z,99.99
2022-09-05T00:39:15.919Z,99.99
2022-09-05T00:40:18.401Z,99.99
2022-09-05T00:41:15.924Z,99.99
2022-09-05T00:42:15.919Z,99.99
2022-09-05T00:43:15.905Z,99.99
2022-09-05T00:44:15.914Z,99.99
2022-09-05T00:45:19.451Z,99.99
2022-09-05T00:46:15.958Z,99.99
2022-09-05T00:47:15.864Z,99.99
2022-09-05T00:48:15.826Z,99.99
2022-09-05T00:49:15.832Z,99.99
2022-09-05T00:50:15.790Z,99.99
2022-09-05T00:51:15.787Z,99.99
2022-09-05T00:52:15.794Z,99.99
2022-09-05T00:53:15.804Z,99.99
2022-09-05T00:54:15.856Z,99.99
2022-09-05T00:55:15.738Z,99.99
2022-09-05T00:56:15.722Z,99.99
2022-09-05T00:57:18.155Z,99.99
2022-09-05T00:58:15.704Z,99.99
2022-09-05T00:59:15.730Z,99.99
2022-09-05T01:00:17.933Z,99.99
2022-09-05T01:01:21.004Z,99.99
2022-09-05T01:02:16.842Z,99.99
2022-09-05T01:03:15.857Z,99.99
2022-09-05T01:04:15.640Z,99.99
2022-09-05T01:05:15.635Z,99.99
2022-09-05T01:06:15.639Z,99.99
2022-09-05T01:07:15.652Z,99.99
2022-09-05T01:08:15.588Z,99.91
2022-09-05T01:09:15.607Z,99.99
2022-09-05T01:10:15.578Z,99.99
2022-09-05T01:11:15.587Z,99.99
2022-09-05T01:12:15.584Z,99.99
2022-09-05T01:13:15.530Z,99.99
2022-09-05T01:14:15.531Z,99.99
2022-09-05T01:15:15.545Z,99.91
2022-09-05T01:16:15.580Z,99.99
2022-09-05T01:17:15.494Z,99.99
2022-09-05T01:18:15.478Z,99.81
2022-09-05T01:19:15.920Z,99.99
2022-09-05T01:20:19.498Z,99.99
2022-09-05T01:21:15.454Z,99.99
2022-09-05T01:22:15.446Z,99.99
2022-09-05T01:23:15.471Z,99.99
2022-09-05T01:24:15.405Z,99.99
2022-09-05T01:25:15.399Z,99.99
2022-09-05T01:26:15.412Z,99.99
2022-09-05T01:27:15.379Z,99.99
2022-09-05T01:29:16.293Z,99.99
2022-09-05T01:29:19.559Z,99.99
2022-09-05T01:30:15.336Z,99.99
2022-09-05T01:31:15.417Z,99.99
2022-09-05T01:32:15.331Z,99.99
2022-09-05T01:33:15.319Z,99.99
2022-09-05T01:34:15.292Z,99.99
2022-09-05T01:35:15.285Z,99.99
2022-09-05T01:36:15.270Z,99.99
2022-09-05T01:37:33.711Z,99.99
2022-09-05T01:38:16.273Z,99.99
2022-09-05T01:39:39.292Z,99.99
2022-09-05T01:40:17.037Z,99.99
2022-09-05T01:41:18.599Z,99.99
2022-09-05T01:42:15.249Z,99.99
2022-09-05T01:43:15.194Z,99.99
2022-09-05T01:44:15.188Z,99.99
2022-09-05T01:45:15.170Z,99.99
2022-09-05T01:46:15.235Z,99.99
2022-09-05T01:47:15.165Z,99.99
2022-09-05T01:48:16.179Z,99.99
2022-09-05T01:49:15.132Z,99.99
2022-09-05T01:50:15.167Z,99.99
2022-09-05T01:51:28.877Z,99.99
2022-09-05T01:52:16.100Z,99.99
2022-09-05T01:53:15.079Z,99.99
2022-09-05T01:54:23.750Z,99.99
2022-09-05T01:55:16.085Z,99.99
2022-09-05T01:56:15.067Z,99.99
2022-09-05T01:57:16.110Z,99.99
2022-09-05T01:58:15.019Z,99.99
2022-09-05T01:59:15.028Z,99.99
2022-09-05T02:00:15.005Z,99.99
2022-09-05T02:01:30.136Z,99.99
2022-09-05T02:02:16.192Z,99.99
2022-09-05T02:03:15.006Z,99.99
2022-09-05T02:04:14.954Z,99.99
2022-09-05T02:05:14.936Z,99.99
2022-09-05T02:06:14.943Z,99.99
2022-09-05T02:07:19.436Z,99.99
2022-09-05T02:08:15.969Z,99.99
2022-09-05T02:09:14.889Z,99.99
2022-09-05T02:10:14.881Z,99.91
2022-09-05T02:11:14.875Z,99.99
2022-09-05T02:12:14.909Z,99.99
2022-09-05T02:13:14.886Z,99.99
2022-09-05T02:14:14.834Z,99.99
2022-09-05T02:15:15.825Z,99.99
2022-09-05T02:16:14.959Z,99.99
2022-09-05T02:17:23.374Z,99.99
2022-09-05T02:18:15.786Z,99.99
2022-09-05T02:19:14.825Z,99.99
2022-09-05T02:20:14.765Z,99.99
2022-09-05T02:21:15.788Z,99.99
2022-09-05T02:22:14.752Z,99.99
2022-09-05T02:23:38.927Z,99.99
2022-09-05T02:24:15.771Z,99.99
2022-09-05T02:26:01.268Z,99.99
2022-09-05T02:26:15.696Z,99.99
2022-09-05T02:27:31.855Z,99.99
2022-09-05T02:28:15.697Z,99.99
2022-09-05T02:29:28.935Z,99.99
2022-09-05T02:30:15.719Z,99.99
2022-09-05T02:31:20.205Z,99.99
2022-09-05T02:32:15.673Z,99.99
2022-09-05T02:33:14.620Z,99.99
2022-09-05T02:34:14.625Z,99.99
2022-09-05T02:35:14.617Z,99.99
2022-09-05T02:36:14.635Z,99.99
2022-09-05T02:37:14.575Z,99.99
2022-09-05T02:40:59.863Z,99.99
2022-09-05T02:45:03.804Z,99.99
2022-09-05T02:45:06.239Z,99.99
2022-09-05T02:45:11.421Z,99.99
2022-09-05T02:45:15.180Z,99.99
2022-09-05T02:45:18.590Z,99.99
2022-09-05T02:45:21.085Z,99.99
2022-09-05T02:45:25.812Z,99.99
2022-09-05T02:46:15.519Z,99.99
2022-09-05T02:47:14.464Z,99.99
2022-09-05T02:48:15.725Z,99.99
2022-09-05T02:52:38.098Z,99.99
2022-09-05T02:52:42.427Z,99.99
2022-09-05T02:57:25.826Z,99.99
2022-09-05T02:57:29.160Z,99.99
2022-09-05T02:57:29.659Z,99.99
2022-09-05T02:57:35.416Z,99.99
2022-09-05T02:57:39.467Z,99.99
2022-09-05T02:57:42.313Z,99.99
2022-09-05T02:57:46.493Z,99.99
2022-09-05T02:58:15.907Z,99.99
2022-09-05T02:59:14.479Z,99.99
2022-09-05T03:00:14.318Z,99.99
2022-09-05T03:01:14.403Z,99.99
2022-09-05T03:02:25.249Z,99.99
2022-09-05T03:03:15.500Z,99.99
2022-09-05T03:04:14.284Z,99.99
2022-09-05T03:05:14.268Z,99.99
2022-09-05T03:06:14.256Z,99.99
2022-09-05T03:07:14.240Z,99.99
2022-09-05T03:08:14.269Z,99.99
2022-09-05T03:09:16.945Z,99.99
2022-09-05T03:10:14.219Z,99.99
2022-09-05T03:11:14.194Z,99.99
2022-09-05T03:12:29.450Z,99.99
2022-09-05T03:13:15.224Z,99.99
2022-09-05T03:14:14.208Z,99.99
2022-09-05T03:15:18.813Z,99.99
2022-09-05T03:16:15.213Z,99.99
2022-09-05T03:17:14.126Z,99.99
2022-09-05T03:18:31.422Z,99.99
2022-09-05T03:19:15.130Z,99.99
2022-09-05T03:20:14.130Z,99.99
2022-09-05T03:21:14.120Z,99.99
2022-09-05T03:22:14.075Z,99.99
2022-09-05T03:23:21.984Z,99.99
2022-09-05T03:24:14.052Z,99.99
2022-09-05T03:25:14.083Z,99.99
2022-09-05T03:26:14.056Z,99.99
2022-09-05T03:27:14.016Z,99.99
2022-09-05T03:28:14.043Z,99.99
2022-09-05T03:29:14.005Z,99.99
2022-09-05T03:30:13.992Z,99.99
2022-09-05T03:31:20.563Z,99.99
2022-09-05T03:32:14.960Z,99.99
2022-09-05T03:33:14.001Z,99.99
2022-09-05T03:34:13.938Z,99.99
2022-09-05T03:35:13.926Z,99.99
2022-09-05T03:36:13.932Z,99.95
2022-09-05T03:37:13.934Z,99.99
2022-09-05T03:38:13.944Z,99.99
2022-09-05T03:39:13.935Z,99.99
2022-09-05T03:40:15.211Z,99.99
2022-09-05T03:41:13.859Z,99.99
2022-09-05T03:42:14.622Z,99.99
2022-09-05T03:43:13.864Z,99.99
2022-09-05T03:44:13.881Z,99.99
2022-09-05T03:45:13.817Z,99.99
2022-09-05T03:46:13.941Z,99.99
2022-09-05T03:47:13.820Z,99.99
2022-09-05T03:48:23.075Z,99.99
2022-09-05T03:49:17.612Z,99.99
2022-09-05T03:55:12.142Z,99.99
2022-09-05T03:57:04.529Z,99.99
2022-09-05T03:57:10.353Z,99.99
2022-09-05T03:57:14.288Z,99.99
2022-09-05T03:57:14.440Z,99.99
2022-09-05T03:57:16.382Z,99.99
2022-09-05T03:57:25.337Z,99.99
2022-09-05T03:57:32.277Z,99.99
2022-09-05T03:58:16.950Z,99.99
2022-09-05T03:59:13.700Z,99.99
2022-09-05T04:00:13.651Z,99.99
2022-09-05T04:03:20.248Z,99.79
2022-09-05T04:06:58.312Z,99.79
2022-09-05T04:08:06.417Z,99.58
2022-09-05T04:08:08.423Z,99.99
2022-09-05T04:08:18.448Z,99.99
2022-09-05T04:08:19.030Z,99.58
2022-09-05T04:08:31.416Z,99.99
2022-09-05T04:08:34.236Z,99.99
2022-09-05T04:09:22.720Z,99.99
2022-09-05T04:10:14.726Z,99.99
2022-09-05T04:11:13.560Z,99.99
2022-09-05T04:12:13.553Z,99.99
2022-09-05T04:13:13.501Z,99.99
2022-09-05T04:14:13.526Z,99.99
2022-09-05T04:15:13.481Z,99.99
2022-09-05T04:16:13.556Z,99.99
2022-09-05T04:17:13.486Z,99.99
2022-09-05T04:18:13.487Z,99.99
2022-09-05T04:19:13.464Z,99.99
2022-09-05T04:20:13.438Z,99.99
2022-09-05T04:21:13.420Z,99.99
2022-09-05T04:22:13.422Z,99.99
2022-09-05T04:23:13.391Z,99.99
2022-09-05T04:24:13.399Z,99.99
2022-09-05T04:25:13.446Z,99.99
2022-09-05T04:26:13.385Z,99.99
2022-09-05T04:27:13.359Z,99.99
2022-09-05T04:28:13.354Z,99.99
2022-09-05T04:29:13.327Z,99.99
2022-09-05T04:30:38.634Z,99.99
2022-09-05T04:31:14.333Z,99.99
2022-09-05T04:32:19.040Z,99.99
2022-09-05T04:33:14.323Z,99.99
2022-09-05T04:34:13.291Z,99.99
2022-09-05T04:35:13.266Z,99.99
2022-09-05T04:36:18.210Z,99.99
2022-09-05T04:37:14.249Z,99.99
2022-09-05T04:38:13.230Z,99.99
2022-09-05T04:39:13.225Z,99.89
2022-09-05T04:40:13.246Z,99.68
2022-09-05T04:41:13.242Z,99.58
2022-09-05T04:42:13.223Z,99.38
2022-09-05T04:43:13.166Z,99.07
2022-09-05T04:44:13.169Z,99.38
2022-09-05T04:45:13.151Z,99.99
2022-09-05T04:46:18.277Z,99.99
2022-09-05T04:47:15.591Z,99.99
2022-09-05T04:48:13.119Z,99.68
2022-09-05T04:49:13.104Z,99.38
2022-09-05T04:50:13.098Z,98.86
2022-09-05T04:51:13.296Z,98.86
2022-09-05T04:52:13.810Z,99.99
2022-09-05T04:53:14.058Z,99.79
2022-09-05T04:54:13.067Z,99.79
2022-09-05T04:55:13.064Z,99.58
2022-09-05T04:56:13.035Z,98.66
2022-09-05T04:57:14.542Z,98.46
2022-09-05T04:58:13.014Z,98.97
2022-09-05T05:03:18.629Z,99.07
2022-09-05T05:05:42.102Z,98.97
2022-09-05T05:06:02.110Z,99.27
2022-09-05T05:06:05.740Z,99.38
2022-09-05T05:06:08.909Z,99.84
2022-09-05T05:06:12.748Z,99.99
2022-09-05T05:06:16.673Z,99.89
2022-09-05T05:06:44.054Z,99.99
2022-09-05T05:07:14.030Z,99.99
2022-09-05T05:08:13.047Z,99.99
2022-09-05T05:09:12.881Z,99.99
2022-09-05T05:10:57.403Z,99.99
2022-09-05T05:17:25.336Z,99.99
2022-09-05T05:17:53.699Z,99.99
2022-09-05T05:18:03.289Z,99.99
2022-09-05T05:18:08.807Z,99.99
2022-09-05T05:18:10.385Z,99.99
2022-09-05T05:18:12.650Z,99.99
2022-09-05T05:18:14.682Z,99.99
2022-09-05T05:18:40.987Z,99.99
2022-09-05T05:19:18.753Z,99.99
2022-09-05T05:20:43.056Z,99.99
2022-09-05T05:21:13.756Z,99.99
2022-09-05T05:22:12.739Z,99.99
2022-09-05T05:23:12.746Z,99.99
2022-09-05T05:24:12.738Z,99.99
2022-09-05T05:25:12.724Z,99.99
2022-09-05T05:26:12.698Z,99.99
2022-09-05T05:27:12.745Z,99.99
2022-09-05T05:28:22.579Z,99.99
2022-09-05T05:29:18.834Z,99.99
2022-09-05T05:30:13.680Z,99.99
2022-09-05T05:31:12.684Z,99.99
2022-09-05T05:32:12.644Z,99.99
2022-09-05T05:33:13.638Z,99.99
2022-09-05T05:34:24.562Z,99.99
2022-09-05T05:35:13.616Z,99.99
2022-09-05T05:36:12.572Z,99.99
2022-09-05T05:37:12.691Z,99.99
2022-09-05T05:38:12.548Z,99.99
2022-09-05T05:39:12.552Z,99.99
2022-09-05T05:40:12.664Z,99.99
2022-09-05T05:41:12.539Z,99.99
2022-09-05T05:42:20.980Z,99.99
2022-09-05T05:43:13.500Z,99.99
2022-09-05T05:44:12.482Z,99.99
2022-09-05T05:45:12.475Z,99.99
2022-09-05T05:46:12.558Z,99.99
2022-09-05T05:47:12.479Z,99.99
2022-09-05T05:48:12.481Z,99.99
2022-09-05T05:49:12.441Z,99.99
2022-09-05T05:50:12.422Z,99.99
2022-09-05T05:51:12.429Z,99.99
2022-09-05T05:52:12.415Z,99.99
2022-09-05T05:53:12.382Z,99.99
2022-09-05T05:54:13.370Z,99.99
2022-09-05T05:55:50.600Z,99.99
2022-09-05T05:56:13.363Z,99.99
2022-09-05T05:57:14.982Z,99.99
2022-09-05T05:58:12.358Z,99.99
2022-09-05T05:59:12.317Z,99.99
2022-09-05T06:00:13.440Z,99.99
2022-09-05T06:01:23.085Z,99.99
2022-09-05T06:02:13.399Z,99.99
2022-09-05T06:03:26.226Z,99.99
2022-09-05T06:04:13.270Z,99.99
2022-09-05T06:05:12.287Z,99.99
2022-09-05T06:06:12.236Z,99.99
2022-09-05T06:07:12.236Z,99.99
2022-09-05T06:12:06.968Z,99.99
2022-09-05T06:12:38.765Z,99.99
2022-09-05T06:14:48.507Z,99.99
2022-09-05T06:15:02.059Z,99.99
2022-09-05T06:15:04.035Z,99.99
2022-09-05T06:15:06.176Z,99.99
2022-09-05T06:15:06.828Z,99.99
2022-09-05T06:15:17.738Z,99.99
2022-09-05T06:16:13.205Z,99.99
2022-09-05T06:17:12.126Z,99.99
2022-09-05T06:18:12.105Z,99.99
2022-09-05T06:19:12.089Z,99.99
2022-09-05T06:22:07.008Z,99.99
2022-09-05T06:22:09.314Z,99.99
2022-09-05T06:22:16.844Z,99.99
2022-09-05T06:23:32.105Z,99.99
2022-09-05T06:24:13.042Z,99.99
2022-09-05T06:25:17.034Z,99.99
2022-09-05T06:26:13.028Z,99.99
2022-09-05T06:27:12.047Z,99.99
2022-09-05T06:28:18.396Z,99.99
2022-09-05T06:29:13.001Z,99.99
2022-09-05T06:30:12.017Z,99.99
2022-09-05T06:31:30.440Z,99.99
2022-09-05T06:32:13.565Z,99.99
2022-09-05T06:33:11.933Z,99.99
2022-09-05T06:34:27.260Z,99.99
2022-09-05T06:35:12.914Z,99.99
2022-09-05T06:36:11.919Z,99.99
2022-09-05T06:37:11.905Z,99.99
2022-09-05T06:38:11.911Z,99.99
2022-09-05T06:39:11.981Z,99.99
2022-09-05T06:40:12.002Z,99.99
2022-09-05T06:41:11.876Z,99.99
2022-09-05T06:42:15.077Z,99.99
2022-09-05T06:43:12.831Z,99.99
2022-09-05T06:44:11.851Z,99.99
2022-09-05T06:45:27.466Z,99.99
2022-09-05T06:46:12.824Z,99.99
2022-09-05T06:47:24.427Z,99.99
2022-09-05T06:48:13.621Z,99.99
2022-09-05T06:49:30.116Z,99.99
2022-09-05T06:50:27.209Z,99.99
2022-09-05T06:51:12.775Z,99.99
2022-09-05T06:52:16.567Z,99.99
2022-09-05T06:53:19.544Z,99.99
2022-09-05T06:54:12.702Z,99.99
2022-09-05T06:55:11.683Z,99.99
2022-09-05T06:56:11.686Z,99.99
2022-09-05T06:57:11.722Z,99.99
2022-09-05T06:58:11.694Z,99.99
2022-09-05T06:59:11.648Z,99.99
2022-09-05T07:00:19.587Z,99.99
2022-09-05T07:01:12.818Z,99.99
2022-09-05T07:02:11.746Z,99.99
2022-09-05T07:03:13.482Z,99.99
2022-09-05T07:04:33.234Z,99.99
2022-09-05T07:05:36.971Z,99.99
2022-09-05T07:06:19.835Z,99.99
2022-09-05T07:07:12.569Z,99.57
2022-09-05T07:08:33.462Z,98.92
2022-09-05T07:09:12.536Z,98.86
2022-09-05T07:10:35.024Z,98.92
2022-09-05T07:11:16.728Z,98.51
2022-09-05T07:12:11.487Z,98.92
2022-09-05T07:13:11.503Z,97.91
2022-09-05T07:14:11.482Z,97.50
2022-09-05T07:15:11.460Z,97.71
2022-09-05T07:16:11.590Z,97.86
2022-09-05T07:17:11.466Z,97.60
2022-09-05T07:18:11.432Z,97.76
2022-09-05T07:19:11.430Z,96.34
2022-09-05T07:20:11.432Z,96.34
2022-09-05T07:21:17.336Z,96.25
2022-09-05T07:22:46.040Z,96.14
2022-09-05T07:23:47.676Z,96.50
2022-09-05T07:24:12.944Z,96.20
2022-09-05T07:25:11.377Z,95.90
2022-09-05T07:26:29.320Z,96.00
2022-09-05T07:27:12.697Z,95.90
2022-09-05T07:28:28.555Z,95.65
2022-09-05T07:29:12.300Z,96.10
2022-09-05T07:30:11.301Z,96.15
2022-09-05T07:31:11.384Z,95.75
2022-09-05T07:32:11.339Z,95.65
2022-09-05T07:33:11.258Z,95.04
2022-09-05T07:34:21.119Z,95.55
2022-09-05T07:35:12.274Z,95.35
2022-09-05T07:36:11.242Z,95.40
2022-09-05T07:37:15.442Z,96.05
2022-09-05T07:38:11.202Z,95.40
2022-09-05T07:39:28.343Z,96.11
2022-09-05T07:40:26.316Z,95.90
2022-09-05T07:41:12.193Z,95.70
2022-09-05T07:42:11.170Z,94.80
2022-09-05T07:43:11.141Z,94.09
2022-09-05T07:44:11.148Z,93.85
2022-09-05T07:45:11.139Z,93.54
2022-09-05T07:46:11.260Z,93.65
2022-09-05T07:47:11.121Z,93.74
2022-09-05T07:48:11.131Z,93.04
2022-09-05T07:49:11.075Z,92.23
2022-09-05T07:51:36.097Z,92.74
2022-09-05T07:56:46.587Z,92.54
2022-09-05T07:56:54.607Z,92.74
2022-09-05T07:56:54.862Z,92.79
2022-09-05T07:56:58.769Z,92.39
2022-09-05T07:56:58.769Z,91.78
2022-09-05T07:57:07.930Z,91.78
2022-09-05T07:57:27.192Z,92.59
2022-09-05T07:58:12.011Z,90.98
2022-09-05T07:59:10.984Z,91.58
2022-09-05T08:00:26.637Z,91.74
2022-09-05T08:01:12.043Z,90.84
2022-09-05T08:02:10.930Z,90.73
2022-09-05T08:03:10.915Z,90.73
2022-09-05T08:04:10.922Z,91.04
2022-09-05T08:05:10.975Z,90.73
2022-09-05T08:06:10.899Z,90.94
2022-09-05T08:07:45.716Z,90.73
2022-09-05T08:08:11.875Z,89.08
2022-09-05T08:10:05.210Z,88.58
2022-09-05T08:10:15.865Z,88.18
2022-09-05T08:11:22.842Z,89.79
2022-09-05T08:12:11.855Z,89.89
2022-09-05T08:13:23.574Z,90.49
2022-09-05T08:14:40.571Z,90.99
2022-09-05T08:15:14.166Z,89.59
2022-09-05T08:16:13.640Z,89.89
2022-09-05T08:17:10.758Z,89.08
2022-09-05T08:18:10.768Z,89.44
2022-09-05T08:19:10.771Z,89.14
2022-09-05T08:20:10.725Z,88.13
2022-09-05T08:21:10.712Z,89.14
2022-09-05T08:22:10.719Z,88.54
2022-09-05T08:23:10.701Z,88.49
2022-09-05T08:24:13.184Z,88.09
2022-09-05T08:25:10.754Z,88.09
2022-09-05T08:26:10.662Z,87.08
2022-09-05T08:27:16.112Z,84.77
2022-09-05T08:28:11.643Z,86.58
2022-09-05T08:29:10.641Z,85.17
2022-09-05T08:30:26.652Z,85.68
2022-09-05T08:31:11.704Z,86.38
2022-09-05T08:32:10.591Z,86.44
2022-09-05T08:33:11.920Z,86.85
2022-09-05T08:34:10.569Z,84.94
2022-09-05T08:35:10.563Z,84.63
2022-09-05T08:36:10.543Z,84.33
2022-09-05T08:37:10.547Z,84.83
2022-09-05T08:38:10.598Z,86.44
2022-09-05T08:39:10.555Z,86.70
2022-09-05T08:40:12.079Z,86.60
2022-09-05T08:41:10.511Z,86.40
2022-09-05T08:42:10.477Z,87.01
2022-09-05T08:46:36.584Z,84.45
2022-09-05T08:46:37.993Z,84.29
2022-09-05T08:46:40.699Z,84.15
2022-09-05T08:46:40.699Z,84.95
2022-09-05T08:47:11.500Z,84.45
2022-09-05T08:48:10.409Z,84.11
2022-09-05T08:49:12.399Z,84.65
2022-09-05T08:50:11.400Z,83.91
2022-09-05T08:51:10.383Z,84.01
2022-09-05T08:52:10.374Z,82.20
2022-09-05T08:53:26.830Z,80.90
2022-09-05T08:54:11.605Z,81.56
2022-09-05T08:55:10.358Z,82.26
2022-09-05T08:56:10.317Z,82.06
2022-09-05T08:57:10.319Z,82.26
2022-09-05T08:58:10.317Z,81.46
2022-09-05T08:59:31.601Z,82.46
2022-09-05T09:00:18.528Z,82.53
2022-09-05T09:01:11.845Z,81.73
2022-09-05T09:02:46.673Z,81.82
2022-09-05T09:03:11.311Z,81.42
2022-09-05T09:04:11.519Z,80.52
2022-09-05T09:05:14.686Z,80.02
2022-09-05T09:06:13.760Z,80.22
2022-09-05T09:07:47.264Z,80.08
2022-09-05T09:08:11.204Z,80.98
2022-09-05T09:09:10.195Z,81.18
2022-09-05T09:10:10.160Z,80.58
2022-09-05T09:11:10.173Z,79.78
2022-09-05T09:12:10.152Z,80.48
2022-09-05T09:13:10.161Z,81.59
2022-09-05T09:14:10.135Z,82.18
2022-09-05T09:15:10.125Z,80.79
2022-09-05T09:16:10.153Z,79.88
2022-09-05T09:17:10.095Z,79.68
2022-09-05T09:18:10.363Z,80.24
2022-09-05T09:19:10.066Z,79.85
2022-09-05T09:20:10.068Z,80.85
2022-09-05T09:21:10.043Z,80.15
2022-09-05T09:22:10.048Z,78.50
2022-09-05T09:23:30.452Z,78.50
2022-09-05T09:24:11.011Z,78.80
2022-09-05T09:25:14.436Z,78.60
2022-09-05T09:26:10.994Z,78.41
2022-09-05T09:27:09.974Z,78.70
2022-09-05T09:28:49.645Z,79.30
2022-09-05T09:29:10.953Z,79.60
2022-09-05T09:30:09.936Z,80.17
2022-09-05T09:31:10.001Z,79.17
2022-09-05T09:32:09.910Z,79.67
2022-09-05T09:33:09.899Z,78.77
2022-09-05T09:34:09.920Z,79.57
2022-09-05T09:35:09.908Z,80.27
2022-09-05T09:36:09.878Z,78.27
2022-09-05T09:37:09.886Z,79.67
2022-09-05T09:38:09.848Z,78.56
2022-09-05T09:39:25.992Z,78.06
2022-09-05T09:40:10.928Z,77.56
2022-09-05T09:41:09.869Z,76.46
2022-09-05T09:42:09.818Z,77.06
2022-09-05T09:43:10.813Z,75.02
2022-09-05T09:44:09.786Z,77.13
2022-09-05T09:45:22.979Z,76.33
2022-09-05T09:46:10.820Z,76.43
2022-09-05T09:47:09.749Z,76.13
2022-09-05T09:48:09.759Z,76.73
2022-09-05T09:49:22.757Z,75.63
2022-09-05T09:50:10.722Z,76.39
2022-09-05T09:51:09.710Z,76.29
2022-09-05T09:52:20.629Z,76.39
2022-09-05T09:53:10.702Z,75.59
2022-09-05T09:54:09.706Z,74.79
2022-09-05T09:55:09.660Z,74.49
2022-09-05T09:56:10.664Z,75.09
2022-09-05T09:57:09.647Z,73.89
2022-09-05T09:58:09.623Z,74.55
2022-09-05T09:59:09.615Z,75.76
2022-09-05T10:00:09.626Z,74.46
2022-09-05T10:01:35.366Z,74.36
2022-09-05T10:03:02.180Z,73.66
2022-09-05T10:09:50.553Z,74.85
2022-09-05T10:09:52.530Z,74.16
2022-09-05T10:10:36.342Z,72.86
2022-09-05T10:10:38.624Z,72.16
2022-09-05T10:10:44.036Z,73.25
2022-09-05T10:10:50.601Z,74.16
2022-09-05T10:10:50.761Z,73.66
2022-09-05T10:10:53.340Z,72.36
2022-09-05T10:12:10.566Z,72.62
2022-09-05T10:13:09.462Z,72.62
2022-09-05T10:14:09.736Z,73.42
2022-09-05T10:15:30.491Z,72.02
2022-09-05T10:16:10.531Z,71.12
2022-09-05T10:17:09.476Z,70.32
2022-09-05T10:18:09.425Z,71.59
2022-09-05T10:19:09.399Z,71.19
2022-09-05T10:20:11.194Z,70.89
2022-09-05T10:21:16.152Z,70.89
2022-09-05T10:23:10.350Z,69.59
2022-09-05T10:24:09.382Z,69.49
2022-09-05T10:25:16.506Z,69.09
2022-09-05T10:26:10.316Z,71.99
2022-09-05T10:27:09.360Z,70.79
2022-09-05T10:28:09.304Z,70.79
2022-09-05T10:29:36.804Z,69.99
2022-09-05T10:30:10.377Z,70.29
2022-09-05T10:32:34.699Z,70.76
2022-09-05T10:35:02.828Z,70.36
2022-09-05T10:35:17.074Z,70.16
2022-09-05T10:35:21.132Z,70.36
2022-09-05T10:35:22.834Z,69.56
2022-09-05T10:36:13.977Z,70.65
2022-09-05T10:37:10.201Z,69.16
2022-09-05T10:38:10.613Z,69.36
2022-09-05T10:39:13.540Z,70.46
2022-09-05T10:40:09.227Z,70.53
2022-09-05T10:41:22.587Z,70.03
2022-09-05T10:42:10.167Z,71.72
2022-09-05T10:43:09.158Z,69.69
2022-09-05T10:44:09.123Z,69.23
2022-09-05T10:45:09.094Z,69.39
2022-09-05T10:46:09.227Z,69.29
2022-09-05T10:47:09.198Z,69.69
2022-09-05T10:48:13.029Z,68.26
2022-09-05T10:49:09.068Z,67.86
2022-09-05T10:50:09.145Z,67.60
2022-09-05T10:51:09.057Z,66.07
2022-09-05T10:52:18.655Z,66.00
2022-09-05T10:53:10.005Z,66.30
2022-09-05T10:54:09.022Z,66.10
2022-09-05T10:55:15.235Z,69.79
2022-09-05T10:56:10.018Z,69.39
2022-09-05T10:57:08.962Z,69.29
2022-09-05T10:58:09.002Z,70.29
2022-09-05T11:02:16.277Z,69.09
2022-09-05T11:02:20.877Z,67.40
2022-09-05T11:02:26.378Z,68.60
2022-09-05T11:02:29.554Z,66.90
2022-09-05T11:03:33.644Z,68.23
2022-09-05T11:04:10.000Z,68.30
2022-09-05T11:05:08.916Z,68.30
2022-09-05T11:06:09.619Z,66.60
2022-09-05T11:07:08.866Z,66.00
2022-09-05T11:08:08.851Z,67.00
2022-09-05T11:09:11.282Z,66.57
2022-09-05T11:10:09.967Z,66.40
2022-09-05T11:11:08.832Z,66.20
2022-09-05T11:12:09.794Z,66.17
2022-09-05T11:13:08.804Z,66.20
2022-09-05T11:14:08.778Z,66.17
2022-09-05T11:15:09.782Z,65.87
2022-09-05T11:16:12.730Z,65.67
2022-09-05T11:17:08.740Z,65.08
2022-09-05T11:18:08.742Z,63.35
2022-09-05T11:19:08.719Z,64.28
2022-09-05T11:20:20.770Z,63.15
2022-09-05T11:21:09.737Z,64.75
2022-09-05T11:22:22.904Z,63.55
2022-09-05T11:23:09.669Z,64.25
2022-09-05T11:24:08.686Z,64.64
2022-09-05T11:25:08.685Z,65.77
2022-09-05T11:26:08.664Z,66.07
2022-09-05T11:27:24.948Z,66.14
2022-09-05T11:28:09.626Z,64.45
2022-09-05T11:29:08.650Z,66.44
2022-09-05T11:30:08.624Z,65.74
2022-09-05T11:31:08.675Z,66.94
2022-09-05T11:32:30.349Z,64.84
2022-09-05T11:39:50.834Z,64.75
2022-09-05T11:39:52.067Z,64.84
2022-09-05T11:39:52.354Z,65.54
2022-09-05T11:39:57.302Z,64.15
2022-09-05T11:39:57.826Z,63.85
2022-09-05T11:40:00.370Z,65.24
2022-09-05T11:40:09.798Z,67.63
2022-09-05T11:40:28.270Z,66.64
2022-09-05T11:41:12.922Z,66.53
2022-09-05T11:42:08.517Z,65.14
2022-09-05T11:43:08.451Z,65.31
2022-09-05T11:44:08.473Z,64.51
2022-09-05T11:45:09.448Z,64.72
2022-09-05T11:46:08.501Z,63.19
2022-09-05T11:47:27.916Z,64.28
2022-09-05T11:48:09.423Z,62.59
2022-09-05T11:49:08.419Z,63.59
2022-09-05T11:50:09.378Z,63.79
2022-09-05T11:51:08.372Z,63.19
2022-09-05T11:52:08.366Z,63.19
2022-09-05T11:53:08.342Z,63.49
2022-09-05T11:54:08.328Z,63.29
2022-09-05T11:55:08.334Z,64.09
2022-09-05T11:56:09.354Z,65.98
2022-09-05T11:57:32.573Z,64.48
2022-09-05T11:58:43.255Z,64.39
2022-09-05T11:59:09.275Z,63.89
2022-09-05T12:00:31.964Z,64.58
2022-09-05T12:01:41.788Z,64.88
2022-09-05T12:02:23.311Z,63.29
2022-09-05T12:03:09.224Z,62.79
2022-09-05T12:04:09.845Z,61.69
2022-09-05T12:05:50.089Z,60.30
2022-09-05T12:06:09.716Z,60.90
2022-09-05T12:07:26.237Z,60.00
2022-09-05T12:08:09.294Z,59.91
2022-09-05T12:09:08.186Z,60.60
2022-09-05T12:10:08.151Z,62.59
2022-09-05T12:11:08.143Z,61.57
2022-09-05T12:12:18.695Z,63.26
2022-09-05T12:13:09.123Z,59.61
2022-09-05T12:14:21.304Z,61.47
2022-09-05T12:15:09.112Z,61.77
2022-09-05T12:16:10.334Z,64.15
2022-09-05T12:17:10.263Z,60.38
2022-09-05T12:18:18.853Z,60.57
2022-09-05T12:19:18.929Z,59.38
2022-09-05T12:20:17.155Z,59.58
2022-09-05T12:21:17.496Z,58.88
2022-09-05T12:22:16.204Z,57.39
2022-09-05T12:23:19.563Z,57.36
2022-09-05T12:24:48.158Z,59.08
2022-09-05T12:25:25.711Z,56.70
2022-09-05T12:27:39.511Z,58.56
2022-09-05T12:27:44.878Z,57.66
2022-09-05T12:29:25.996Z,60.05
2022-09-05T12:29:32.841Z,59.75
2022-09-05T12:30:08.948Z,60.44
2022-09-05T12:32:31.157Z,62.04
2022-09-05T12:33:01.424Z,62.40
2022-09-05T12:36:02.502Z,60.42
2022-09-05T12:36:09.769Z,59.72
2022-09-05T12:36:12.957Z,60.42
2022-09-05T12:40:15.695Z,60.22
2022-09-05T12:40:46.154Z,59.52
2022-09-05T12:40:46.237Z,59.22
2022-09-05T12:40:59.543Z,59.72
2022-09-05T12:41:36.873Z,59.15
2022-09-05T12:41:43.842Z,60.71
2022-09-05T12:42:19.947Z,60.31
2022-09-05T12:44:38.963Z,62.01
2022-09-05T12:44:39.060Z,58.43
2022-09-05T12:45:09.072Z,61.21
2022-09-05T12:46:13.073Z,60.52
2022-09-05T12:47:19.133Z,60.69
2022-09-05T12:48:07.773Z,60.19
2022-09-05T12:49:07.828Z,61.28
2022-09-05T12:50:14.858Z,59.39
2022-09-05T12:51:08.741Z,60.19
2022-09-05T12:52:07.698Z,60.39
2022-09-05T12:53:07.729Z,59.19
2022-09-05T12:54:24.536Z,59.39